Time;durP1;ratioP1;P1;durP2;ratioP2;P2;SDS_P1;SDS_P2;PMS_P1;PMS_P2;Temp;Humidity;BMP_temperature;BMP_pressure;BME280_temperature;BME280_humidity;BME280_pressure;Samples;Min_cycle;Max_cycle;Signal;HPM_P1;HPM_P2
2022/03/29 00:00:52;;;;;;;43.78;23.98;;;;;;;-142.75;100.00;77983.91;5007546;28;20026;-70
2022/03/29 00:03:18;;;;;;;47.20;23.40;;;;;;;-142.75;100.00;77981.94;5007906;28;20123;-67
2022/03/29 00:05:43;;;;;;;44.75;23.13;;;;;;;-142.75;100.00;77976.03;5008147;28;20018;-69
2022/03/29 00:08:09;;;;;;;43.23;23.47;;;;;;;-142.75;100.00;77979.97;5006600;28;20033;-69
2022/03/29 00:10:34;;;;;;;38.72;21.70;;;;;;;-142.75;100.00;77972.09;5007856;28;20279;-68
2022/03/29 00:12:59;;;;;;;44.30;23.20;;;;;;;-142.75;100.00;77964.22;5007737;28;20026;-69
2022/03/29 00:15:25;;;;;;;45.38;22.98;;;;;;;-142.75;100.00;77958.31;5007114;28;20108;-68
2022/03/29 00:17:50;;;;;;;49.70;24.67;;;;;;;-142.75;100.00;77960.28;5007529;28;20120;-71
2022/03/29 00:20:18;;;;;;;51.92;25.77;;;;;;;-142.75;100.00;77962.25;5008132;28;20018;-70
2022/03/29 00:22:44;;;;;;;43.87;24.00;;;;;;;-142.75;100.00;77954.38;5008328;28;20041;-68
2022/03/29 00:25:10;;;;;;;43.85;22.92;;;;;;;-142.75;100.00;77940.59;5007283;28;20034;-68
2022/03/29 00:27:36;;;;;;;49.00;23.20;;;;;;;-142.75;100.00;77928.78;5008335;28;20121;-68
2022/03/29 00:30:03;;;;;;;45.85;23.95;;;;;;;-142.75;100.00;77922.88;5007959;28;20113;-69
2022/03/29 00:32:28;;;;;;;45.65;23.77;;;;;;;-142.75;100.00;77913.03;5008280;28;20129;-68
2022/03/29 00:34:54;;;;;;;45.75;23.55;;;;;;;-142.75;100.00;77911.06;5008289;28;20113;-68
2022/03/29 00:37:19;;;;;;;43.90;23.90;;;;;;;-142.75;100.00;77903.16;5008352;28;20076;-69
2022/03/29 00:39:44;;;;;;;45.67;24.42;;;;;;;-142.75;100.00;77901.19;5008000;28;20369;-68
2022/03/29 00:42:09;;;;;;;43.83;23.77;;;;;;;-142.75;100.00;77887.41;5008296;28;20399;-69
2022/03/29 00:44:38;;;;;;;46.95;22.98;;;;;;;-142.75;100.00;77891.34;5008294;28;20028;-68
2022/03/29 00:47:04;;;;;;;44.33;24.03;;;;;;;-142.75;100.00;77885.44;5008880;28;20033;-69
2022/03/29 00:49:29;;;;;;;;;;;;;;;-142.75;100.00;77881.50;5008329;28;20499;-69
2022/03/29 00:51:58;;;;;;;42.47;22.63;;;;;;;-142.75;100.00;77877.56;5007102;28;19955;-67
2022/03/29 00:54:32;;;;;;;43.33;22.40;;;;;;;-142.75;100.00;77877.56;5008343;28;20129;-68
2022/03/29 00:56:59;;;;;;;43.83;23.43;;;;;;;-142.75;100.00;77869.69;5008186;28;20526;-68
2022/03/29 00:59:26;;;;;;;47.53;24.37;;;;;;;-142.75;100.00;77879.53;5007981;28;20435;-69
2022/03/29 01:01:52;;;;;;;44.13;23.77;;;;;;;-142.75;100.00;77881.50;5006918;28;20030;-68
2022/03/29 01:04:18;;;;;;;;;;;;;;;-142.75;100.00;77881.50;5007262;28;20442;-66
2022/03/29 01:06:44;;;;;;;41.23;21.77;;;;;;;-142.75;100.00;77899.22;5008145;28;19914;-69
2022/03/29 01:09:11;;;;;;;43.83;23.45;;;;;;;-142.75;100.00;77893.31;5007608;28;20033;-70
2022/03/29 01:11:37;;;;;;;44.67;23.53;;;;;;;-142.75;100.00;77901.19;5007940;28;20029;-69
2022/03/29 01:14:03;;;;;;;45.73;24.20;;;;;;;-142.75;100.00;77889.38;5008400;28;20053;-68
2022/03/29 01:19:17;;;;;;;44.33;22.13;;;;;;;-142.75;100.00;77873.63;5008310;28;20048;-67
2022/03/29 01:21:52;;;;;;;47.13;24.80;;;;;;;-142.75;100.00;77881.50;5006563;28;20046;-68
2022/03/29 01:24:18;;;;;;;54.17;25.47;;;;;;;-142.75;100.00;77885.44;5007989;28;20549;-68
2022/03/29 01:26:45;;;;;;;44.97;24.10;;;;;;;-142.75;100.00;77873.63;5006690;28;20022;-68
2022/03/29 01:29:10;;;;;;;;;;;;;;;-142.75;100.00;77865.75;5008075;28;20042;-68
2022/03/29 01:31:36;;;;;;;51.07;23.87;;;;;;;-142.75;100.00;77877.56;5008026;28;19921;-69
2022/03/29 01:34:04;;;;;;;42.80;23.20;;;;;;;-142.75;100.00;77875.59;5009915;28;20048;-67
2022/03/29 01:36:29;;;;;;;46.93;25.23;;;;;;;-142.75;100.00;77873.63;5011830;28;20021;-68
2022/03/29 01:38:55;;;;;;;52.33;25.02;;;;;;;-142.75;100.00;77867.72;5011182;28;20020;-69
2022/03/29 01:41:20;;;;;;;46.78;25.17;;;;;;;-142.75;100.00;77877.56;5009843;28;20018;-68
2022/03/29 01:43:45;;;;;;;49.17;25.58;;;;;;;-142.75;100.00;77893.31;5010961;28;20029;-68
2022/03/29 01:46:12;;;;;;;47.30;24.83;;;;;;;-142.75;100.00;77901.19;5011266;28;20029;-68
2022/03/29 01:48:37;;;;;;;43.77;23.90;;;;;;;-142.75;100.00;77893.31;5010031;28;20038;-69
2022/03/29 01:51:03;;;;;;;47.42;25.63;;;;;;;-142.75;100.00;77895.28;5009535;28;20032;-68
2022/03/29 01:53:28;;;;;;;48.42;24.38;;;;;;;-142.75;100.00;77885.44;5010773;28;20041;-69
2022/03/29 01:55:58;;;;;;;49.88;24.90;;;;;;;-142.75;100.00;77881.50;5010094;28;20484;-68
2022/03/29 01:58:24;;;;;;;46.27;23.90;;;;;;;-142.75;100.00;77887.41;5010619;28;20030;-68
2022/03/29 02:00:50;;;;;;;50.57;24.93;;;;;;;-142.75;100.00;77893.31;5010802;28;20044;-68
2022/03/29 02:03:15;;;;;;;49.05;23.88;;;;;;;-142.75;100.00;77893.31;5009333;28;20037;-67
2022/03/29 02:05:41;;;;;;;43.22;23.10;;;;;;;-142.75;100.00;77891.34;5009282;28;20049;-67
2022/03/29 02:08:07;;;;;;;46.67;24.63;;;;;;;-142.75;100.00;77889.38;5009052;28;20053;-68
2022/03/29 02:10:32;;;;;;;43.40;22.73;;;;;;;-142.75;100.00;77885.44;5010542;28;20022;-69
2022/03/29 02:12:58;;;;;;;48.67;24.95;;;;;;;-142.75;100.00;77893.31;5010440;28;20118;-69
2022/03/29 02:15:24;;;;;;;50.85;23.45;;;;;;;-142.75;100.00;77885.44;5010724;28;20026;-70
2022/03/29 02:17:50;;;;;;;50.97;24.88;;;;;;;-142.75;100.00;77895.28;5010906;28;20018;-67
2022/03/29 02:20:17;;;;;;;49.45;25.73;;;;;;;-142.75;100.00;77895.28;5010349;28;20034;-67
2022/03/29 02:22:43;;;;;;;54.87;25.20;;;;;;;-142.75;100.00;77907.09;5008860;28;20053;-69
2022/03/29 02:25:12;;;;;;;50.23;23.90;;;;;;;-142.75;100.00;77909.06;5010503;28;20108;-69
2022/03/29 02:27:39;;;;;;;51.87;25.67;;;;;;;-142.75;100.00;77938.63;5010213;28;20021;-69
2022/03/29 02:30:06;;;;;;;54.37;27.00;;;;;;;-142.75;100.00;77928.78;5009909;28;20097;-69
2022/03/29 02:32:31;;;;;;;52.00;24.13;;;;;;;-142.75;100.00;77924.84;5009951;28;20033;-68
2022/03/29 02:34:58;;;;;;;44.85;23.48;;;;;;;-142.75;100.00;77913.03;5008629;28;20479;-70
2022/03/29 02:37:24;;;;;;;45.43;22.27;;;;;;;-142.75;100.00;77913.03;5009971;28;20057;-68
2022/03/29 02:39:49;;;;;;;48.80;25.15;;;;;;;-142.75;100.00;77915.00;5009710;28;20069;-68
2022/03/29 02:42:14;;;;;;;44.65;22.90;;;;;;;-142.75;100.00;77913.03;5010019;28;20072;-68
2022/03/29 02:44:39;;;;;;;43.83;23.52;;;;;;;-142.75;100.00;77901.19;5010930;28;20045;-68
2022/03/29 02:47:05;;;;;;;48.60;24.35;;;;;;;-142.75;100.00;77909.06;5010254;28;20673;-68
2022/03/29 02:49:30;;;;;;;47.78;23.33;;;;;;;-142.75;100.00;77891.34;5006937;28;20029;-66
2022/03/29 02:51:56;;;;;;;54.93;25.13;;;;;;;-142.75;100.00;77905.13;5009779;28;20033;-66
2022/03/29 02:54:21;;;;;;;54.37;23.27;;;;;;;-142.75;100.00;77893.31;5008488;28;20283;-67
2022/03/29 02:56:46;;;;;;;47.90;22.53;;;;;;;-142.75;100.00;77883.47;5008588;28;20268;-66
2022/03/29 02:59:14;;;;;;;50.40;22.98;;;;;;;-142.75;100.00;77899.22;5008084;28;20368;-68
2022/03/29 03:01:39;;;;;;;48.97;23.80;;;;;;;-142.75;100.00;77905.13;5009658;28;20483;-68
2022/03/29 03:04:05;;;;;;;47.70;22.52;;;;;;;-142.75;100.00;77909.06;5008000;28;20034;-68
2022/03/29 03:06:30;;;;;;;47.97;23.27;;;;;;;-142.75;100.00;77905.13;5009510;28;20025;-68
2022/03/29 03:08:55;;;;;;;46.42;22.55;;;;;;;-142.75;100.00;77901.19;5008821;28;20053;-67
2022/03/29 03:11:21;;;;;;;49.13;23.53;;;;;;;-142.75;100.00;77887.41;5009408;28;20443;-66
2022/03/29 03:13:46;;;;;;;51.47;24.42;;;;;;;-142.75;100.00;77905.13;5007953;28;20273;-67
2022/03/29 03:16:12;;;;;;;48.58;24.40;;;;;;;-142.75;100.00;77911.06;5009601;28;20372;-67
2022/03/29 03:18:37;;;;;;;56.35;24.60;;;;;;;-142.75;100.00;77913.03;5008248;28;20018;-68
2022/03/29 03:21:03;;;;;;;53.15;25.20;;;;;;;-142.75;100.00;77932.72;5007865;28;20388;-67
2022/03/29 03:23:29;;;;;;;50.33;24.00;;;;;;;-142.75;100.00;77930.75;5009230;28;20029;-68
2022/03/29 03:25:54;;;;;;;48.05;23.80;;;;;;;-142.75;100.00;77915.00;5009432;28;20017;-67
2022/03/29 03:28:20;;;;;;;48.70;23.45;;;;;;;-142.75;100.00;77920.91;5007453;28;20404;-68
2022/03/29 03:30:45;;;;;;;51.05;23.42;;;;;;;-142.75;100.00;77920.91;5008875;28;20022;-66
2022/03/29 03:33:11;;;;;;;51.08;24.63;;;;;;;-142.75;100.00;77913.03;5007657;28;20021;-66
2022/03/29 03:35:36;;;;;;;49.97;22.88;;;;;;;-142.75;100.00;77907.09;5008949;28;20029;-67
2022/03/29 03:38:01;;;;;;;47.65;23.58;;;;;;;-142.75;100.00;77903.16;5007330;28;20028;-67
2022/03/29 03:40:27;;;;;;;50.58;22.42;;;;;;;-142.75;100.00;77913.03;5008923;28;20084;-67
2022/03/29 03:42:52;;;;;;;43.67;20.73;;;;;;;-142.75;100.00;77915.00;5008686;28;20024;-67
2022/03/29 03:45:17;;;;;;;40.33;20.30;;;;;;;-142.75;100.00;77909.06;5009195;28;20506;-67
2022/03/29 03:47:43;;;;;;;48.43;22.90;;;;;;;-142.75;100.00;77913.03;5009408;28;20022;-67
2022/03/29 03:50:09;;;;;;;50.38;22.05;;;;;;;-142.75;100.00;77913.03;5008409;28;20292;-68
2022/03/29 03:52:34;;;;;;;48.17;23.60;;;;;;;-142.75;100.00;77913.03;5008709;28;20065;-67
2022/03/29 03:55:00;;;;;;;54.47;21.10;;;;;;;-142.75;100.00;77918.94;5008268;28;20026;-66
2022/03/29 03:57:25;;;;;;;39.30;20.10;;;;;;;-142.75;100.00;77920.91;5007392;28;20403;-66
2022/03/29 03:59:52;;;;;;;47.05;21.05;;;;;;;-142.75;100.00;77911.06;5007135;28;20028;-67
2022/03/29 04:02:17;;;;;;;43.90;20.70;;;;;;;-142.75;100.00;77918.94;5008557;28;20369;-67
2022/03/29 04:04:43;;;;;;;46.13;21.85;;;;;;;-142.75;100.00;77913.03;5008401;28;20037;-68
2022/03/29 04:07:08;;;;;;;43.80;21.10;;;;;;;-142.75;100.00;77932.72;5008636;28;20060;-67
2022/03/29 04:09:35;;;;;;;47.50;20.88;;;;;;;-142.75;100.00;77938.63;5008318;28;20484;-68
2022/03/29 04:12:02;;;;;;;41.07;20.90;;;;;;;-142.75;100.00;77938.63;5008632;28;20037;-68
2022/03/29 04:14:28;;;;;;;48.30;21.57;;;;;;;-142.75;100.00;77948.47;5007192;28;20034;-67
2022/03/29 04:16:54;;;;;;;48.55;21.15;;;;;;;-142.75;100.00;77944.53;5008577;28;20040;-68
2022/03/29 04:19:19;;;;;;;45.13;22.52;;;;;;;-142.75;100.00;77936.66;5009075;28;20021;-68
2022/03/29 04:21:44;;;;;;;45.20;20.73;;;;;;;-142.75;100.00;77934.69;5008323;28;20128;-69
2022/03/29 04:24:10;;;;;;;48.78;21.33;;;;;;;-142.75;100.00;77932.72;5008255;28;20687;-68
2022/03/29 04:26:35;;;;;;;43.47;22.35;;;;;;;-142.75;100.00;77930.75;5007349;28;20399;-68
2022/03/29 04:29:00;;;;;;;64.13;22.85;;;;;;;-142.75;100.00;77936.66;5008086;28;20050;-67
2022/03/29 04:31:26;;;;;;;47.67;20.88;;;;;;;-142.75;100.00;77936.66;5008326;28;20022;-68
2022/03/29 04:33:51;;;;;;;39.55;20.45;;;;;;;-142.75;100.00;77934.69;5005507;28;20022;-67
2022/03/29 04:36:16;;;;;;;43.10;20.55;;;;;;;-142.75;100.00;77928.78;5008247;28;20022;-66
2022/03/29 04:38:42;;;;;;;50.70;22.27;;;;;;;-142.75;100.00;77938.63;5006704;28;20018;-67
2022/03/29 04:41:07;;;;;;;45.95;21.70;;;;;;;-142.75;100.00;77940.59;5008262;28;20036;-67
2022/03/29 04:43:34;;;;;;;53.35;22.00;;;;;;;-142.75;100.00;77928.78;5008096;28;20030;-68
2022/03/29 04:46:01;;;;;;;49.37;22.23;;;;;;;-142.75;100.00;77920.91;5008366;28;20153;-68
2022/03/29 04:48:27;;;;;;;46.57;22.93;;;;;;;-142.75;100.00;77938.63;5008404;28;20034;-68
2022/03/29 04:50:52;;;;;;;48.03;21.10;;;;;;;-142.75;100.00;77940.59;5008065;28;20048;-65
2022/03/29 04:53:17;;;;;;;49.05;22.48;;;;;;;-142.75;100.00;77944.53;5007997;28;20022;-66
2022/03/29 04:55:44;;;;;;;47.13;22.25;;;;;;;-142.75;100.00;77944.53;5007067;28;20017;-68
2022/03/29 04:58:10;;;;;;;45.43;22.17;;;;;;;-142.75;100.00;77946.50;5007731;28;20030;-67
2022/03/29 05:00:35;;;;;;;47.38;21.83;;;;;;;-142.75;100.00;77946.50;5006728;28;20390;-68
2022/03/29 05:03:01;;;;;;;50.90;21.23;;;;;;;-142.75;100.00;77948.47;5007901;28;20049;-67
2022/03/29 05:05:26;;;;;;;49.00;21.92;;;;;;;-142.75;100.00;77944.53;5008050;28;20024;-68
2022/03/29 05:07:51;;;;;;;45.65;21.83;;;;;;;-142.75;100.00;77952.41;5009390;28;20117;-67
2022/03/29 05:10:17;;;;;;;49.07;21.17;;;;;;;-142.75;100.00;77932.72;5011749;28;20062;-68
2022/03/29 05:12:44;;;;;;;44.47;21.60;;;;;;;-142.75;100.00;77922.88;5011596;28;20338;-68
2022/03/29 05:15:11;;;;;;;49.33;22.53;;;;;;;-142.75;100.00;77932.72;5011768;28;20276;-69
2022/03/29 05:17:37;;;;;;;44.10;20.60;;;;;;;-142.75;100.00;77940.59;5011977;28;20104;-68
2022/03/29 05:20:04;;;;;;;51.45;21.65;;;;;;;-142.75;100.00;77932.72;5010092;28;20017;-68
2022/03/29 05:22:30;;;;;;;55.80;23.30;;;;;;;-142.75;100.00;77928.78;5009896;28;20482;-67
2022/03/29 05:24:55;;;;;;;48.50;20.15;;;;;;;-142.75;100.00;77928.78;5011565;28;20116;-67
2022/03/29 05:27:20;;;;;;;46.63;23.15;;;;;;;-142.75;100.00;77940.59;5011492;28;20049;-67
2022/03/29 05:29:46;;;;;;;52.10;22.30;;;;;;;-142.75;100.00;77940.59;5009659;28;20053;-67
2022/03/29 05:32:11;;;;;;;50.33;23.02;;;;;;;-142.75;100.00;77932.72;5011138;28;20025;-67
2022/03/29 05:34:36;;;;;;;53.28;22.02;;;;;;;-142.75;100.00;77932.72;5009946;28;20021;-68
2022/03/29 05:37:02;;;;;;;48.30;21.98;;;;;;;-142.75;100.00;77938.63;5011163;28;20388;-67
2022/03/29 05:39:27;;;;;;;51.40;24.00;;;;;;;-142.75;100.00;77936.66;5009643;28;20021;-68
2022/03/29 05:41:53;;;;;;;48.63;20.58;;;;;;;-142.75;100.00;77934.69;5011082;28;20037;-68
2022/03/29 05:44:18;;;;;;;50.30;23.15;;;;;;;-142.75;100.00;77930.75;5010860;28;20084;-68
2022/03/29 05:49:28;;;;;;;47.03;21.83;;;;;;;-142.75;100.00;77928.78;5011546;28;20044;-68
2022/03/29 05:51:53;;;;;;;51.00;22.65;;;;;;;-142.75;100.00;77926.81;5010679;28;20116;-68
2022/03/29 05:54:19;;;;;;;48.08;21.60;;;;;;;-142.75;100.00;77924.84;5010797;28;20037;-66
2022/03/29 05:56:44;;;;;;;46.90;21.92;;;;;;;-142.75;100.00;77938.63;5011104;28;20040;-67
2022/03/29 05:59:10;;;;;;;45.40;21.85;;;;;;;-142.75;100.00;77954.38;5008432;28;20071;-68
2022/03/29 06:01:38;;;;;;;45.20;21.17;;;;;;;-142.75;100.00;77966.19;5010794;28;20395;-68
2022/03/29 06:04:06;;;;;;;49.60;21.73;;;;;;;-142.75;100.00;77966.19;5010555;28;20095;-68
2022/03/29 06:06:37;;;;;;;50.33;21.40;;;;;;;-142.75;100.00;77960.28;5010491;28;20389;-67
2022/03/29 06:09:03;;;;;;;48.30;22.67;;;;;;;-142.75;100.00;77952.41;5010295;28;20395;-68
2022/03/29 06:11:28;;;;;;;47.90;20.67;;;;;;;-142.75;100.00;77938.63;5010530;28;20510;-68
2022/03/29 06:13:53;;;;;;;49.42;22.80;;;;;;;-142.75;100.00;77934.69;5010413;28;20053;-68
2022/03/29 06:16:20;;;;;;;52.97;22.55;;;;;;;-142.75;100.00;77934.69;5010320;28;20084;-67
2022/03/29 06:18:45;;;;;;;53.40;21.80;;;;;;;-142.75;100.00;77940.59;5010300;28;20387;-67
2022/03/29 06:21:11;;;;;;;42.42;19.15;;;;;;;-142.75;100.00;77944.53;5010486;28;20030;-67
2022/03/29 06:23:36;;;;;;;50.88;20.75;;;;;;;-142.75;100.00;77940.59;5010258;28;20025;-68
2022/03/29 06:26:02;;;;;;;48.20;20.33;;;;;;;-142.75;100.00;77932.72;5010483;28;20033;-67
2022/03/29 06:28:27;;;;;;;46.45;22.52;;;;;;;-142.75;100.00;77932.72;5009707;28;20272;-68
2022/03/29 06:30:52;;;;;;;49.40;20.92;;;;;;;-142.75;100.00;77920.91;5008741;28;20188;-68
2022/03/29 06:33:20;;;;;;;55.35;21.85;;;;;;;-142.75;100.00;77934.69;5010054;28;20555;-68
2022/03/29 06:35:45;;;;;;;52.70;20.83;;;;;;;-142.75;100.00;77948.47;5008946;28;20044;-67
2022/03/29 06:38:11;;;;;;;50.65;22.70;;;;;;;-142.75;100.00;77948.47;5008384;28;20407;-67
2022/03/29 06:40:36;;;;;;;52.72;21.58;;;;;;;-142.75;100.00;77944.53;5009409;28;20018;-69
2022/03/29 06:43:03;;;;;;;50.97;21.58;;;;;;;-142.75;100.00;77942.56;5007674;28;20095;-67
2022/03/29 06:45:28;;;;;;;;;;;;;;;-142.75;100.00;77956.34;5009879;28;20105;-68
2022/03/29 06:47:54;;;;;;;47.30;20.77;;;;;;;-142.75;100.00;77944.53;5009222;28;19996;-69
2022/03/29 06:50:20;;;;;;;52.35;22.48;;;;;;;-142.75;100.00;77946.50;5009392;28;20034;-68
2022/03/29 06:52:47;;;;;;;44.85;21.25;;;;;;;-142.75;100.00;77944.53;5008314;28;20033;-67
2022/03/29 06:55:14;;;;;;;40.30;20.63;;;;;;;-142.75;100.00;77952.41;5007963;28;20487;-67
2022/03/29 06:57:40;;;;;;;42.17;19.70;;;;;;;-142.75;100.00;77940.59;5007452;28;20021;-68
2022/03/29 07:00:09;;;;;;;50.28;21.48;;;;;;;-142.75;100.00;77952.41;5007806;28;20030;-68
2022/03/29 07:02:35;;;;;;;48.40;21.73;;;;;;;-142.75;100.00;77946.50;5007458;28;20104;-68
2022/03/29 07:05:01;;;;;;;47.00;21.63;;;;;;;-142.75;100.00;77932.72;5006999;28;20116;-68
2022/03/29 07:07:26;;;;;;;49.38;22.63;;;;;;;-142.75;100.00;77938.63;5006922;28;20022;-67
2022/03/29 07:12:49;;;;;;;47.50;22.17;;;;;;;-142.75;100.00;77932.72;5006948;28;20314;-68
2022/03/29 07:15:15;;;;;;;51.63;22.47;;;;;;;-142.75;100.00;77922.88;5005908;28;20594;-68
2022/03/29 07:17:40;;;;;;;54.97;23.05;;;;;;;-142.75;100.00;77938.63;5005120;28;20104;-70
2022/03/29 07:20:06;;;;;;;45.85;21.58;;;;;;;-142.75;100.00;77934.69;5008906;28;20643;-68
2022/03/29 07:22:31;;;;;;;53.78;23.20;;;;;;;-142.75;100.00;77922.88;5007360;28;20079;-69
2022/03/29 07:24:56;;;;;;;51.15;21.98;;;;;;;-142.75;100.00;77918.94;5007365;28;20095;-69
2022/03/29 07:27:22;;;;;;;53.17;24.37;;;;;;;-142.75;100.00;77930.75;5006095;28;20029;-67
2022/03/29 07:29:49;;;;;;;51.28;22.75;;;;;;;-142.75;100.00;77936.66;5005789;28;20770;-67
2022/03/29 07:32:15;;;;;;;56.30;22.70;;;;;;;-142.75;100.00;77924.84;5006177;28;20056;-68
2022/03/29 07:34:40;;;;;;;59.88;23.08;;;;;;;-142.75;100.00;77918.94;5005381;28;20068;-68
2022/03/29 07:37:06;;;;;;;60.15;25.17;;;;;;;-142.75;100.00;77911.06;5007012;28;20069;-68
2022/03/29 07:39:31;;;;;;;54.78;24.77;;;;;;;-142.75;100.00;77915.00;5006698;28;20026;-66
2022/03/29 07:41:57;;;;;;;49.33;22.13;;;;;;;-142.75;100.00;77926.81;5006682;28;20026;-65
2022/03/29 07:44:22;;;;;;;51.97;23.95;;;;;;;-142.75;100.00;77909.06;5006515;28;20047;-65
2022/03/29 07:46:48;;;;;;;56.60;23.08;;;;;;;-142.75;100.00;77895.28;5007632;28;20030;-66
2022/03/29 07:49:13;;;;;;;55.03;23.08;;;;;;;-142.75;100.00;77883.47;5007121;28;20057;-66
2022/03/29 07:51:39;;;;;;;55.80;23.60;;;;;;;-142.75;100.00;77901.19;5007388;28;20033;-67
2022/03/29 07:54:04;;;;;;;49.42;22.42;;;;;;;-142.75;100.00;77897.25;5007441;28;20029;-67
2022/03/29 07:56:30;;;;;;;54.97;23.42;;;;;;;-142.75;100.00;77920.91;5005782;28;20061;-68
2022/03/29 07:58:56;;;;;;;47.97;23.08;;;;;;;-142.75;100.00;77897.25;5006600;28;20109;-67
2022/03/29 08:01:22;;;;;;;54.67;23.70;;;;;;;-142.75;100.00;77895.28;5005487;28;20592;-67
2022/03/29 08:03:47;;;;;;;56.10;23.48;;;;;;;-142.75;100.00;77879.53;5005543;28;20034;-67
2022/03/29 08:06:13;;;;;;;53.80;23.73;;;;;;;-142.75;100.00;77879.53;5006708;28;20041;-67
2022/03/29 08:08:38;;;;;;;54.35;23.42;;;;;;;-142.75;100.00;77895.28;5005820;28;20553;-68
2022/03/29 08:11:04;;;;;;;48.17;21.75;;;;;;;-142.75;100.00;77885.44;5007063;28;20025;-67
2022/03/29 08:13:30;;;;;;;51.25;21.73;;;;;;;-142.75;100.00;77869.69;5006945;28;20120;-67
2022/03/29 08:15:56;;;;;;;;;;;;;;;-142.75;100.00;77887.41;5007945;28;20056;-68
2022/03/29 08:18:22;;;;;;;37.87;18.00;;;;;;;-142.75;100.00;77883.47;5007480;28;19913;-67
2022/03/29 08:20:48;;;;;;;;;;;;;;;-142.75;100.00;77877.56;5007660;28;20080;-67
2022/03/29 08:23:13;;;;;;;42.00;20.60;;;;;;;-142.75;100.00;77855.91;5007318;28;19929;-67
2022/03/29 08:25:42;;;;;;;44.83;21.33;;;;;;;-142.75;100.00;77865.75;5007475;28;20022;-67
2022/03/29 08:28:08;;;;;;;45.77;20.43;;;;;;;-142.75;100.00;77848.03;5006612;28;20026;-68
2022/03/29 08:30:34;;;;;;;47.60;20.70;;;;;;;-142.75;100.00;77826.38;5006798;28;20030;-67
2022/03/29 08:33:02;;;;;;;47.77;22.23;;;;;;;-142.75;100.00;77834.25;5007193;28;20456;-68
2022/03/29 08:35:27;;;;;;;49.43;22.43;;;;;;;-142.75;100.00;77838.19;5007094;28;20483;-67
2022/03/29 08:37:53;;;;;;;41.50;21.65;;;;;;;-142.75;100.00;77727.94;5006911;28;20196;-66
2022/03/29 08:40:26;;;;;;;43.35;20.48;;;;;;;-142.75;100.00;77763.38;5007400;28;20033;-68
2022/03/29 08:45:19;;;;;;;41.40;20.07;;;;;;;-142.75;100.00;77802.75;5036038;22;20050;-67
2022/03/29 08:47:45;;;;;;;36.15;19.65;;;;;;;-142.75;100.00;77826.38;5013149;28;20034;-67
2022/03/29 08:50:13;;;;;;;41.30;19.57;;;;;;;-142.75;100.00;77850.00;5014153;28;20036;-67
2022/03/29 08:52:40;;;;;;;37.83;20.20;;;;;;;-142.75;100.00;77853.94;5014265;28;20029;-67
2022/03/29 08:55:08;;;;;;;42.20;19.13;;;;;;;-142.75;100.00;77861.81;5014349;28;20523;-67
2022/03/29 08:57:33;;;;;;;39.50;18.23;;;;;;;-142.75;100.00;77844.09;5013842;28;20106;-67
2022/03/29 08:59:59;;;;;;;37.95;18.50;;;;;;;-142.75;100.00;77844.09;5014130;28;20081;-67
2022/03/29 09:02:25;;;;;;;37.42;17.80;;;;;;;-142.75;100.00;77842.13;5014557;28;20080;-67
2022/03/29 09:05:07;;;;;;;;;;;;;;;-142.75;100.00;77834.25;5014817;28;20436;-67
2022/03/29 09:07:50;;;;;;;36.40;17.23;;;;;;;-142.75;100.00;77822.44;5013821;28;20000;-67
2022/03/29 09:10:17;;;;;;;36.03;17.77;;;;;;;-142.75;100.00;77808.66;5014354;28;20578;-67
2022/03/29 09:12:42;;;;;;;36.47;18.87;;;;;;;-142.75;100.00;77810.63;5014237;28;20022;-67
2022/03/29 09:15:09;;;;;;;40.38;19.95;;;;;;;-142.75;100.00;77798.81;5014191;28;20395;-67
2022/03/29 09:17:38;;;;;;;40.40;20.27;;;;;;;-142.75;100.00;77800.78;5014612;28;20021;-68
2022/03/29 09:20:10;;;;;;;39.37;19.70;;;;;;;-142.75;100.00;77775.19;5014727;28;20010;-68
2022/03/29 09:22:43;;;;;;;44.23;19.17;;;;;;;-142.75;100.00;77771.25;5014307;28;20053;-67
2022/03/29 09:25:11;;;;;;;42.30;18.87;;;;;;;-142.75;100.00;77783.06;5014638;28;20030;-67
2022/03/29 09:27:58;;;;;;;45.10;20.87;;;;;;;-142.75;100.00;77763.38;5014260;28;20042;-67
2022/03/29 09:30:26;;;;;;;42.30;20.80;;;;;;;-142.75;100.00;77790.94;5014014;28;20026;-66
2022/03/29 09:33:07;;;;;;;36.97;18.90;;;;;;;-142.75;100.00;77814.56;5013843;28;20038;-67
2022/03/29 09:35:36;;;;;;;39.90;18.10;;;;;;;-142.75;100.00;77830.31;5013468;28;20041;-67
2022/03/29 09:38:20;;;;;;;38.63;18.03;;;;;;;-142.75;100.00;77830.31;5011684;28;20152;-67
2022/03/29 09:40:45;;;;;;;45.77;20.60;;;;;;;-142.75;100.00;77810.63;5013345;28;20029;-67
2022/03/29 09:43:10;;;;;;;39.60;19.73;;;;;;;-142.75;100.00;77806.69;5012695;28;20021;-67
2022/03/29 09:45:40;;;;;;;36.58;17.55;;;;;;;-142.75;100.00;77796.84;5013192;28;20022;-67
2022/03/29 09:48:34;;;;;;;40.33;19.47;;;;;;;-142.75;100.00;77798.81;5013231;28;20099;-67
2022/03/29 09:51:09;;;;;;;39.50;19.63;;;;;;;-142.75;100.00;77792.91;5013143;28;20030;-67
2022/03/29 09:53:43;;;;;;;45.43;20.00;;;;;;;-142.75;100.00;77802.75;5011925;28;20164;-67
2022/03/29 09:56:11;;;;;;;39.50;19.37;;;;;;;-142.75;100.00;77788.97;5013221;28;20416;-68
2022/03/29 09:58:37;;;;;;;41.67;19.67;;;;;;;-142.75;100.00;77796.84;5012729;28;20029;-67
2022/03/29 10:01:03;;;;;;;;;;;;;;;-142.75;100.00;77812.59;5013333;28;20393;-66
2022/03/29 10:03:32;;;;;;;44.03;19.80;;;;;;;-142.75;100.00;77790.94;5012730;28;19972;-67
2022/03/29 10:06:02;;;;;;;43.03;19.30;;;;;;;-142.75;100.00;77810.63;5013212;28;20041;-67
2022/03/29 10:11:15;;;;;;;49.35;21.38;;;;;;;-142.75;100.00;77759.44;5012619;28;20037;-67
2022/03/29 10:13:41;;;;;;;42.63;19.33;;;;;;;-142.75;100.00;77773.22;5012705;28;20079;-67
2022/03/29 10:16:12;;;;;;;50.30;20.63;;;;;;;-142.75;100.00;77767.31;5012711;28;20029;-67
2022/03/29 10:18:39;;;;;;;41.17;21.37;;;;;;;-142.75;100.00;77767.31;5012869;28;20487;-67
2022/03/29 10:21:05;;;;;;;46.13;21.00;;;;;;;-142.75;100.00;77743.69;4994809;28;20115;-67
2022/03/29 10:23:31;;;;;;;40.20;19.83;;;;;;;-142.75;100.00;77737.78;4994725;28;20482;-67
2022/03/29 10:25:58;;;;;;;39.83;19.45;;;;;;;-142.75;100.00;77739.75;5012152;28;20041;-67
2022/03/29 10:28:27;;;;;;;38.87;18.97;;;;;;;-142.75;100.00;77735.81;5012291;28;20025;-67
2022/03/29 10:30:52;;;;;;;43.50;20.43;;;;;;;-142.75;100.00;77735.81;5012110;28;20551;-67
2022/03/29 10:33:24;;;;;;;42.67;20.02;;;;;;;-142.75;100.00;77710.19;4994731;28;20117;-67
2022/03/29 10:36:12;;;;;;;38.10;19.57;;;;;;;-142.75;100.00;77698.38;5012210;28;20080;-67
2022/03/29 10:38:44;;;;;;;37.07;18.50;;;;;;;-142.75;100.00;77704.28;5012063;28;20034;-67
2022/03/29 10:41:37;;;;;;;42.50;19.83;;;;;;;-142.75;100.00;77686.56;5012240;28;20037;-67
2022/03/29 10:44:05;;;;;;;39.93;19.27;;;;;;;-142.75;100.00;77684.59;5011837;28;20033;-67
2022/03/29 10:46:39;;;;;;;41.57;20.50;;;;;;;-142.75;100.00;77676.72;5012043;28;20065;-67
2022/03/29 10:49:24;;;;;;;39.17;19.60;;;;;;;-142.75;100.00;77668.84;4994625;28;20030;-67
2022/03/29 10:51:55;;;;;;;37.17;20.47;;;;;;;-142.75;100.00;77680.66;4994301;28;20063;-67
2022/03/29 10:54:36;;;;;;;41.13;20.87;;;;;;;-142.75;100.00;77684.59;5011901;28;20502;-67
2022/03/29 10:57:07;;;;;;;43.23;19.43;;;;;;;-142.75;100.00;77666.88;5011705;28;20034;-67
2022/03/29 10:59:37;;;;;;;47.55;21.10;;;;;;;-142.75;100.00;77643.25;5011534;28;20043;-67
2022/03/29 11:02:22;;;;;;;40.17;21.27;;;;;;;-142.75;100.00;77633.41;5011812;28;20032;-67
2022/03/29 11:05:07;;;;;;;42.53;19.63;;;;;;;-142.75;100.00;77639.31;4993752;28;20065;-67
2022/03/29 11:07:48;;;;;;;44.40;21.00;;;;;;;-142.75;100.00;77647.19;5011180;28;20539;-67
2022/03/29 11:10:19;;;;;;;39.73;20.70;;;;;;;-142.75;100.00;77655.06;4993688;28;20026;-67